Time;durP1;ratioP1;P1;durP2;ratioP2;P2;SDS_P1;SDS_P2;PMS_P1;PMS_P2;Temp;Humidity;BMP_temperature;BMP_pressure;BME280_temperature;BME280_humidity;BME280_pressure;Samples;Min_cycle;Max_cycle;Signal;HPM_P1;HPM_P2
2022/07/08 00:01:48;;;;;;;4.13;1.60;;;;;;;;;;8316313;28;20040;-59
2022/07/08 00:05:49;;;;;;;5.90;1.40;;;;;;;;;;8321840;28;20021;-59
2022/07/08 00:09:49;;;;;;;5.47;1.50;;;;;;;;;;8316959;28;20056;-59
2022/07/08 00:13:49;;;;;;;4.28;1.60;;;;;;;;;;8319917;28;20319;-60
2022/07/08 00:17:49;;;;;;;5.17;1.40;;;;;;;;;;8316365;28;20028;-59
2022/07/08 00:21:50;;;;;;;8.30;1.87;;;;;;;;;;8320299;28;20286;-59
2022/07/08 00:25:50;;;;;;;8.45;1.45;;;;;;;;;;8319032;28;20767;-59
2022/07/08 00:29:50;;;;;;;5.70;1.65;;;;;;;;;;8319748;28;20271;-59
2022/07/08 00:33:50;;;;;;;6.55;2.10;;;;;;;;;;8317632;28;20438;-59
2022/07/08 00:37:53;;;;;;;5.50;1.45;;;;;;;;;;8318369;28;20029;-59
2022/07/08 00:41:53;;;;;;;6.80;1.50;;;;;;;;;;8319478;28;20576;-59
2022/07/08 00:45:53;;;;;;;5.15;1.50;;;;;;;;;;8320219;28;20040;-59
2022/07/08 00:49:53;;;;;;;4.88;1.60;;;;;;;;;;8319633;28;20667;-59
2022/07/08 00:53:54;;;;;;;4.95;1.40;;;;;;;;;;8317874;28;20040;-60
2022/07/08 00:57:54;;;;;;;6.03;1.30;;;;;;;;;;8317213;28;20144;-60
2022/07/08 01:01:54;;;;;;;3.90;1.60;;;;;;;;;;8317024;28;20048;-59
2022/07/08 01:05:54;;;;;;;3.63;1.30;;;;;;;;;;8316953;28;20100;-59
2022/07/08 01:09:54;;;;;;;3.90;1.35;;;;;;;;;;8315292;28;20115;-59
2022/07/08 01:13:55;;;;;;;7.47;1.83;;;;;;;;;;8314073;28;20468;-59
2022/07/08 01:17:55;;;;;;;6.43;1.58;;;;;;;;;;8317823;28;20662;-59
2022/07/08 01:21:55;;;;;;;3.35;1.38;;;;;;;;;;8320225;28;20136;-60
2022/07/08 01:25:56;;;;;;;3.83;1.52;;;;;;;;;;8323380;28;20024;-59
2022/07/08 01:29:57;;;;;;;5.90;1.52;;;;;;;;;;8322191;28;20078;-59
2022/07/08 01:33:57;;;;;;;5.57;1.63;;;;;;;;;;8321790;28;20156;-60
2022/07/08 01:37:57;;;;;;;4.57;1.67;;;;;;;;;;8324101;28;20277;-59
2022/07/08 01:41:57;;;;;;;4.93;1.35;;;;;;;;;;8323032;28;20029;-60
2022/07/08 01:45:58;;;;;;;8.27;1.80;;;;;;;;;;8322077;28;20036;-59
2022/07/08 01:49:58;;;;;;;5.72;2.08;;;;;;;;;;8319068;28;20614;-59
2022/07/08 01:53:58;;;;;;;9.82;1.80;;;;;;;;;;8319505;28;20021;-60
2022/07/08 01:57:58;;;;;;;5.55;1.52;;;;;;;;;;8310020;28;20021;-59
2022/07/08 02:01:58;;;;;;;8.15;1.73;;;;;;;;;;8318577;28;20032;-59
2022/07/08 02:05:58;;;;;;;6.00;1.65;;;;;;;;;;8323157;28;20021;-60
2022/07/08 02:09:59;;;;;;;6.82;1.65;;;;;;;;;;8320260;28;20641;-59
2022/07/08 02:13:59;;;;;;;5.18;1.58;;;;;;;;;;8321690;28;20580;-59
2022/07/08 02:17:59;;;;;;;6.03;1.70;;;;;;;;;;8316110;28;20063;-59
2022/07/08 02:21:59;;;;;;;5.78;1.35;;;;;;;;;;8322726;28;20052;-59
2022/07/08 02:25:59;;;;;;;7.13;1.70;;;;;;;;;;8321258;28;20029;-60
2022/07/08 02:30:00;;;;;;;4.27;1.67;;;;;;;;;;8319719;28;20054;-59
2022/07/08 02:34:00;;;;;;;9.95;1.95;;;;;;;;;;8317583;28;20494;-59
2022/07/08 02:38:00;;;;;;;4.05;1.83;;;;;;;;;;8320210;28;20609;-60
2022/07/08 02:42:01;;;;;;;5.47;1.38;;;;;;;;;;8322304;28;20029;-59
2022/07/08 02:46:01;;;;;;;9.32;1.83;;;;;;;;;;8321444;28;20032;-60
2022/07/08 02:50:01;;;;;;;5.55;1.60;;;;;;;;;;8320694;28;20406;-60
2022/07/08 02:54:02;;;;;;;3.70;1.67;;;;;;;;;;8322018;28;20037;-59
2022/07/08 02:58:02;;;;;;;4.55;2.03;;;;;;;;;;8320325;28;20256;-59
2022/07/08 03:02:02;;;;;;;7.40;1.65;;;;;;;;;;8322217;28;20147;-59
2022/07/08 03:06:03;;;;;;;7.47;1.77;;;;;;;;;;8322279;28;20101;-59
2022/07/08 03:10:03;;;;;;;3.95;1.42;;;;;;;;;;8320873;28;20363;-59
2022/07/08 03:14:03;;;;;;;8.10;1.55;;;;;;;;;;8318480;28;20283;-60
2022/07/08 03:18:04;;;;;;;6.95;2.08;;;;;;;;;;8323032;28;20036;-59
2022/07/08 03:22:04;;;;;;;4.47;1.75;;;;;;;;;;8318360;28;20127;-59
2022/07/08 03:26:04;;;;;;;5.75;1.80;;;;;;;;;;8316580;28;20068;-60
2022/07/08 03:30:05;;;;;;;5.70;1.45;;;;;;;;;;8321179;28;20025;-60
2022/07/08 03:34:05;;;;;;;3.70;1.38;;;;;;;;;;8321876;28;20030;-60
2022/07/08 03:38:05;;;;;;;3.03;1.35;;;;;;;;;;8322454;28;20837;-59
2022/07/08 03:42:05;;;;;;;5.25;1.27;;;;;;;;;;8327045;28;20439;-59
2022/07/08 03:46:06;;;;;;;5.18;1.50;;;;;;;;;;8324423;28;20033;-60
2022/07/08 03:50:07;;;;;;;7.03;1.80;;;;;;;;;;8320911;28;20025;-60
2022/07/08 03:54:07;;;;;;;6.35;1.75;;;;;;;;;;8327549;28;20024;-59
2022/07/08 03:58:07;;;;;;;6.97;1.58;;;;;;;;;;8326818;28;20020;-59
2022/07/08 04:02:07;;;;;;;7.95;1.60;;;;;;;;;;8321455;28;20037;-59
2022/07/08 04:06:08;;;;;;;3.50;1.60;;;;;;;;;;8325428;28;20133;-60
2022/07/08 04:10:08;;;;;;;3.90;1.63;;;;;;;;;;8323425;28;20280;-60
2022/07/08 04:14:08;;;;;;;6.95;1.83;;;;;;;;;;8327338;28;20025;-60
2022/07/08 04:18:08;;;;;;;7.53;1.88;;;;;;;;;;8326656;28;20032;-60
2022/07/08 04:22:09;;;;;;;5.43;1.65;;;;;;;;;;8324149;28;20597;-59
2022/07/08 04:26:09;;;;;;;4.03;1.13;;;;;;;;;;8321562;28;20485;-60
2022/07/08 04:30:09;;;;;;;6.03;1.75;;;;;;;;;;8324330;28;20401;-59
2022/07/08 04:34:10;;;;;;;4.10;1.40;;;;;;;;;;8321821;28;20512;-59
2022/07/08 04:38:10;;;;;;;6.15;1.40;;;;;;;;;;8326480;28;20314;-59
2022/07/08 04:42:10;;;;;;;4.43;1.40;;;;;;;;;;8320372;28;20040;-59
2022/07/08 04:46:14;;;;;;;5.15;1.20;;;;;;;;;;8320575;28;20522;-60
2022/07/08 04:50:14;;;;;;;3.30;1.07;;;;;;;;;;8326373;28;20037;-61
2022/07/08 04:54:14;;;;;;;2.30;1.00;;;;;;;;;;8321774;28;20345;-60
2022/07/08 04:58:14;;;;;;;5.78;1.35;;;;;;;;;;8323764;28;20032;-60
2022/07/08 05:02:15;;;;;;;3.53;1.40;;;;;;;;;;8321671;28;20148;-61
2022/07/08 05:06:15;;;;;;;8.60;1.70;;;;;;;;;;8322461;28;20041;-60
2022/07/08 05:10:20;;;;;;;8.80;1.80;;;;;;;;;;8324672;28;20493;-61
2022/07/08 05:14:20;;;;;;;5.70;1.52;;;;;;;;;;8329561;28;20017;-61
2022/07/08 05:18:21;;;;;;;4.60;1.60;;;;;;;;;;8322015;28;20903;-61
2022/07/08 05:22:21;;;;;;;2.97;1.40;;;;;;;;;;8327221;28;20043;-61
2022/07/08 05:26:21;;;;;;;3.15;1.25;;;;;;;;;;8321238;28;20279;-60
2022/07/08 05:30:21;;;;;;;4.65;1.50;;;;;;;;;;8323378;28;20028;-60
2022/07/08 05:34:21;;;;;;;4.38;1.70;;;;;;;;;;8321634;28;20024;-61
2022/07/08 05:38:22;;;;;;;7.18;1.50;;;;;;;;;;8327148;28;20521;-61
2022/07/08 05:42:22;;;;;;;4.18;1.60;;;;;;;;;;8324217;28;20050;-61
2022/07/08 05:46:22;;;;;;;6.30;1.50;;;;;;;;;;8324130;28;20128;-61
2022/07/08 05:50:22;;;;;;;4.72;1.50;;;;;;;;;;8319620;28;20043;-61
2022/07/08 05:54:23;;;;;;;5.47;1.77;;;;;;;;;;8321070;28;20033;-61
2022/07/08 05:58:23;;;;;;;5.70;1.55;;;;;;;;;;8323352;28;20061;-61
2022/07/08 06:02:23;;;;;;;5.65;1.40;;;;;;;;;;8320778;28;20570;-60
2022/07/08 06:06:23;;;;;;;4.13;1.30;;;;;;;;;;8324053;28;20064;-59
2022/07/08 06:10:26;;;;;;;4.88;1.40;;;;;;;;;;8320599;28;20091;-61
2022/07/08 06:14:26;;;;;;;4.05;1.40;;;;;;;;;;8321041;28;20123;-60
2022/07/08 06:18:26;;;;;;;3.50;1.25;;;;;;;;;;8322150;28;20111;-60
2022/07/08 06:22:27;;;;;;;4.60;1.23;;;;;;;;;;8321794;28;20654;-60
2022/07/08 06:26:29;;;;;;;2.72;1.20;;;;;;;;;;8321576;28;20452;-59
2022/07/08 06:30:29;;;;;;;4.00;1.52;;;;;;;;;;8319671;28;20128;-60
2022/07/08 06:34:29;;;;;;;3.80;1.30;;;;;;;;;;8321239;28;20037;-60
2022/07/08 06:38:30;;;;;;;2.60;1.33;;;;;;;;;;8326033;28;20026;-60
2022/07/08 06:42:30;;;;;;;2.92;1.30;;;;;;;;;;8322462;28;20356;-59
2022/07/08 06:46:30;;;;;;;6.22;1.52;;;;;;;;;;8318616;28;20090;-60
2022/07/08 06:50:30;;;;;;;8.13;1.55;;;;;;;;;;8324152;28;20025;-63
2022/07/08 06:54:37;;;;;;;6.32;1.52;;;;;;;;;;8317774;28;20151;-59
2022/07/08 06:58:37;;;;;;;4.18;1.30;;;;;;;;;;8322159;28;20028;-61
2022/07/08 07:02:37;;;;;;;4.35;1.27;;;;;;;;;;8321884;28;20033;-60
2022/07/08 07:06:38;;;;;;;6.55;1.20;;;;;;;;;;8321279;28;20195;-60
2022/07/08 07:10:38;;;;;;;5.90;1.27;;;;;;;;;;8321557;28;20029;-60
2022/07/08 07:14:38;;;;;;;4.15;1.52;;;;;;;;;;8325028;28;20357;-61
2022/07/08 07:18:40;;;;;;;5.85;1.50;;;;;;;;;;8324071;28;20125;-60
2022/07/08 07:22:40;;;;;;;4.10;1.40;;;;;;;;;;8326967;28;20024;-60
2022/07/08 07:26:41;;;;;;;2.67;1.10;;;;;;;;;;8328486;28;20044;-59
2022/07/08 07:30:41;;;;;;;4.43;1.40;;;;;;;;;;8323790;28;20038;-59
2022/07/08 07:34:42;;;;;;;5.20;1.50;;;;;;;;;;8326839;28;20028;-59
2022/07/08 07:38:42;;;;;;;5.50;1.50;;;;;;;;;;8326199;28;20064;-60
2022/07/08 07:42:43;;;;;;;4.13;1.40;;;;;;;;;;8324638;28;20035;-61
2022/07/08 07:46:43;;;;;;;5.82;1.30;;;;;;;;;;8327193;28;20047;-60
2022/07/08 07:50:44;;;;;;;3.97;1.30;;;;;;;;;;8325961;28;20028;-60
2022/07/08 07:54:44;;;;;;;3.93;1.23;;;;;;;;;;8324602;28;20151;-60
2022/07/08 07:58:45;;;;;;;4.70;1.35;;;;;;;;;;8326495;28;20025;-60
2022/07/08 08:02:45;;;;;;;2.47;1.30;;;;;;;;;;8325608;28;20462;-61
2022/07/08 08:06:45;;;;;;;2.60;1.02;;;;;;;;;;8326334;28;20174;-60
2022/07/08 08:10:45;;;;;;;2.40;1.00;;;;;;;;;;8324541;28;20028;-61
2022/07/08 08:14:45;;;;;;;4.68;1.23;;;;;;;;;;8327247;28;20025;-60
2022/07/08 08:18:46;;;;;;;6.40;1.40;;;;;;;;;;8323391;28;20034;-60
2022/07/08 08:22:46;;;;;;;4.30;1.30;;;;;;;;;;8325228;28;20029;-61
2022/07/08 08:26:47;;;;;;;4.28;1.23;;;;;;;;;;8326439;28;20152;-60
2022/07/08 08:30:48;;;;;;;4.75;1.27;;;;;;;;;;8323420;28;20061;-60
2022/07/08 08:34:48;;;;;;;6.00;1.30;;;;;;;;;;8318722;28;20025;-60
2022/07/08 08:38:50;;;;;;;2.58;1.40;;;;;;;;;;8316508;28;20572;-59
2022/07/08 08:42:50;;;;;;;3.28;1.20;;;;;;;;;;8318112;28;20308;-60
2022/07/08 08:46:52;;;;;;;5.18;1.17;;;;;;;;;;8318421;28;21060;-60
2022/07/08 08:50:53;;;;;;;5.93;1.13;;;;;;;;;;8316931;28;20328;-60
2022/07/08 08:54:53;;;;;;;4.10;1.20;;;;;;;;;;8315681;28;20112;-60
2022/07/08 08:58:54;;;;;;;3.63;1.20;;;;;;;;;;8319759;28;20032;-60
2022/07/08 09:02:55;;;;;;;2.33;1.10;;;;;;;;;;8318803;28;20087;-60
2022/07/08 09:06:55;;;;;;;5.40;1.33;;;;;;;;;;8317426;28;20073;-60
2022/07/08 09:10:55;;;;;;;2.75;1.23;;;;;;;;;;8317552;28;20083;-60
2022/07/08 09:15:00;;;;;;;4.03;1.20;;;;;;;;;;8317381;28;20600;-60
2022/07/08 09:19:11;;;;;;;3.88;1.38;;;;;;;;;;8317350;28;20444;-60
2022/07/08 09:23:11;;;;;;;4.75;1.40;;;;;;;;;;8313731;28;20083;-60
2022/07/08 09:27:11;;;;;;;4.47;1.33;;;;;;;;;;8316616;28;20044;-60
2022/07/08 09:31:12;;;;;;;6.40;1.23;;;;;;;;;;8315809;28;20699;-60
2022/07/08 09:35:13;;;;;;;3.42;1.40;;;;;;;;;;8312523;28;20036;-60
2022/07/08 09:39:23;;;;;;;3.38;1.17;;;;;;;;;;8315708;28;20029;-60
2022/07/08 09:43:23;;;;;;;2.50;1.20;;;;;;;;;;8316213;28;20064;-60
2022/07/08 09:47:23;;;;;;;2.53;1.30;;;;;;;;;;8316037;28;20064;-60
2022/07/08 09:51:24;;;;;;;3.15;1.38;;;;;;;;;;8315884;28;20524;-60
2022/07/08 09:55:29;;;;;;;4.40;1.30;;;;;;;;;;8315912;28;20498;-60
2022/07/08 09:59:30;;;;;;;2.78;1.10;;;;;;;;;;8316662;28;20022;-60
2022/07/08 10:03:31;;;;;;;1.73;1.08;;;;;;;;;;8313560;28;20041;-60
2022/07/08 10:07:31;;;;;;;3.80;1.30;;;;;;;;;;8317109;28;20059;-60
2022/07/08 10:11:31;;;;;;;4.00;1.53;;;;;;;;;;8316073;28;20036;-61
2022/07/08 10:15:34;;;;;;;3.67;1.20;;;;;;;;;;8314183;28;20131;-60
2022/07/08 10:19:38;;;;;;;5.85;1.25;;;;;;;;;;8313710;28;20415;-60
2022/07/08 10:23:39;;;;;;;4.20;1.35;;;;;;;;;;8316142;28;20037;-60
2022/07/08 10:27:40;;;;;;;4.68;1.38;;;;;;;;;;8315109;28;20111;-61
2022/07/08 10:31:41;;;;;;;5.18;1.60;;;;;;;;;;8316808;28;20076;-60
2022/07/08 10:36:02;;;;;;;4.00;1.27;;;;;;;;;;8315900;28;20024;-61
2022/07/08 10:40:02;;;;;;;3.75;1.27;;;;;;;;;;8314629;28;20612;-61
2022/07/08 10:44:03;;;;;;;1.93;1.23;;;;;;;;;;8311800;28;20025;-60
2022/07/08 10:48:07;;;;;;;4.25;1.33;;;;;;;;;;8313706;28;20975;-60
2022/07/08 10:52:08;;;;;;;3.15;1.20;;;;;;;;;;8314635;28;20131;-60
2022/07/08 10:56:08;;;;;;;3.63;1.30;;;;;;;;;;8316192;28;20063;-60
2022/07/08 11:00:09;;;;;;;2.80;1.10;;;;;;;;;;8317107;28;20025;-60
2022/07/08 11:04:40;;;;;;;4.87;1.30;;;;;;;;;;8314763;28;20478;-60
2022/07/08 11:08:59;;;;;;;4.40;1.52;;;;;;;;;;8301121;28;20295;-61
2022/07/08 11:12:59;;;;;;;4.65;1.40;;;;;;;;;;8314643;28;20064;-61
2022/07/08 11:17:01;;;;;;;3.97;1.23;;;;;;;;;;8315769;28;20040;-60
2022/07/08 11:21:01;;;;;;;3.20;1.20;;;;;;;;;;8313516;28;20021;-60
2022/07/08 11:25:02;;;;;;;3.33;1.10;;;;;;;;;;8313973;28;20155;-60
2022/07/08 11:29:02;;;;;;;4.00;1.38;;;;;;;;;;8317973;28;20021;-60
2022/07/08 11:33:02;;;;;;;3.72;1.33;;;;;;;;;;8310729;28;20425;-60
2022/07/08 11:37:03;;;;;;;4.25;1.40;;;;;;;;;;8316882;28;20059;-60
2022/07/08 11:41:03;;;;;;;3.15;1.40;;;;;;;;;;8312668;28;20277;-60
2022/07/08 11:45:04;;;;;;;4.78;1.30;;;;;;;;;;8312762;28;20043;-61
2022/07/08 11:49:05;;;;;;;3.83;1.47;;;;;;;;;;8313612;28;20028;-61
2022/07/08 11:53:05;;;;;;;3.20;1.27;;;;;;;;;;8311878;28;20033;-60
2022/07/08 11:57:05;;;;;;;3.03;1.30;;;;;;;;;;8318437;28;20033;-60
2022/07/08 12:01:05;;;;;;;5.65;1.48;;;;;;;;;;8317026;28;20558;-60
2022/07/08 12:05:09;;;;;;;1.98;1.25;;;;;;;;;;8319639;28;20017;-60
2022/07/08 12:09:09;;;;;;;5.88;1.50;;;;;;;;;;8321241;28;20025;-61
2022/07/08 12:13:10;;;;;;;3.50;1.30;;;;;;;;;;8317860;28;20108;-60
2022/07/08 12:17:10;;;;;;;3.20;1.23;;;;;;;;;;8317460;28;20518;-64
2022/07/08 12:21:17;;;;;;;2.20;1.30;;;;;;;;;;8318666;28;20321;-60
2022/07/08 12:25:18;;;;;;;6.00;1.50;;;;;;;;;;8317960;28;20755;-60
2022/07/08 12:29:18;;;;;;;3.47;1.40;;;;;;;;;;8322757;28;20520;-60
2022/07/08 12:33:27;;;;;;;4.57;1.48;;;;;;;;;;8314508;28;20029;-60
2022/07/08 12:37:27;;;;;;;3.70;1.50;;;;;;;;;;8320808;28;20032;-60
2022/07/08 12:41:28;;;;;;;4.05;1.40;;;;;;;;;;8319609;28;20059;-60
2022/07/08 12:45:29;;;;;;;3.50;1.50;;;;;;;;;;8316079;28;20120;-61
2022/07/08 12:49:30;;;;;;;3.35;1.70;;;;;;;;;;8317080;28;20033;-60
2022/07/08 12:53:30;;;;;;;2.85;1.40;;;;;;;;;;8317280;28;20056;-60
2022/07/08 12:57:30;;;;;;;4.38;1.60;;;;;;;;;;8319954;28;20475;-60
2022/07/08 13:01:30;;;;;;;5.33;1.63;;;;;;;;;;8316801;28;20043;-60
2022/07/08 13:05:31;;;;;;;2.65;1.30;;;;;;;;;;8317148;28;20048;-60
2022/07/08 13:09:31;;;;;;;2.45;1.30;;;;;;;;;;8317893;28;20114;-60
2022/07/08 13:13:31;;;;;;;2.60;1.40;;;;;;;;;;8318573;28;20140;-60
2022/07/08 13:17:31;;;;;;;4.50;1.50;;;;;;;;;;8317790;28;20575;-60
2022/07/08 13:21:32;;;;;;;2.10;1.40;;;;;;;;;;8317854;28;20272;-60
2022/07/08 13:25:32;;;;;;;5.00;1.67;;;;;;;;;;8316302;28;20422;-60
2022/07/08 13:29:32;;;;;;;3.97;1.70;;;;;;;;;;8318456;28;20150;-60
2022/07/08 13:33:32;;;;;;;3.20;1.77;;;;;;;;;;8315258;28;20152;-60
2022/07/08 13:37:33;;;;;;;3.83;1.83;;;;;;;;;;8320219;28;20033;-61
2022/07/08 13:41:33;;;;;;;6.03;1.80;;;;;;;;;;8315586;28;20554;-60
2022/07/08 13:45:33;;;;;;;3.38;1.70;;;;;;;;;;8318034;28;20189;-60
2022/07/08 13:49:33;;;;;;;4.13;1.77;;;;;;;;;;8315987;28;20529;-60
2022/07/08 13:53:34;;;;;;;3.03;1.73;;;;;;;;;;8318331;28;20032;-60
2022/07/08 13:57:34;;;;;;;4.27;1.90;;;;;;;;;;8311194;28;20375;-60
2022/07/08 14:01:34;;;;;;;3.50;1.90;;;;;;;;;;8314477;28;20493;-60
2022/07/08 14:05:35;;;;;;;2.80;1.88;;;;;;;;;;8315492;28;20091;-60
2022/07/08 14:09:35;;;;;;;2.63;1.90;;;;;;;;;;8316705;28;20411;-60
2022/07/08 14:13:35;;;;;;;6.90;2.00;;;;;;;;;;8315709;28;20113;-61
2022/07/08 14:17:36;;;;;;;3.95;2.10;;;;;;;;;;8314634;28;20187;-60
2022/07/08 14:21:36;;;;;;;2.50;1.80;;;;;;;;;;8318041;28;20820;-61
2022/07/08 14:25:36;;;;;;;2.92;2.00;;;;;;;;;;8312727;28;20132;-63
2022/07/08 14:29:36;;;;;;;2.73;1.70;;;;;;;;;;8313130;28;20068;-60
2022/07/08 14:33:37;;;;;;;2.70;1.88;;;;;;;;;;8314630;28;20492;-61
2022/07/08 14:37:37;;;;;;;2.33;1.90;;;;;;;;;;8315762;28;20035;-60
2022/07/08 14:41:37;;;;;;;3.15;2.00;;;;;;;;;;8314432;28;20356;-60
2022/07/08 14:45:37;;;;;;;3.53;2.15;;;;;;;;;;8314664;28;20401;-61
2022/07/08 14:49:37;;;;;;;2.08;1.83;;;;;;;;;;8313185;28;20115;-61
2022/07/08 14:53:38;;;;;;;2.63;1.80;;;;;;;;;;8315911;28;20037;-61
2022/07/08 14:57:38;;;;;;;4.07;2.00;;;;;;;;;;8315847;28;20028;-60
2022/07/08 15:01:38;;;;;;;3.75;1.80;;;;;;;;;;8314454;28;20037;-62
2022/07/08 15:05:38;;;;;;;4.60;2.00;;;;;;;;;;8316366;28;20416;-60
2022/07/08 15:09:39;;;;;;;4.55;2.33;;;;;;;;;;8314004;28;20545;-61
2022/07/08 15:13:39;;;;;;;2.70;2.08;;;;;;;;;;8314871;28;20021;-61
2022/07/08 15:17:39;;;;;;;3.60;2.20;;;;;;;;;;8316124;28;20037;-60
2022/07/08 15:21:39;;;;;;;5.57;2.57;;;;;;;;;;8316864;28;20169;-60
2022/07/08 15:25:40;;;;;;;3.60;2.30;;;;;;;;;;8314847;28;20747;-60
2022/07/08 15:29:40;;;;;;;3.72;2.55;;;;;;;;;;8316441;28;20029;-60
2022/07/08 15:33:41;;;;;;;3.35;2.15;;;;;;;;;;8321588;28;20074;-61
2022/07/08 15:37:42;;;;;;;4.97;2.30;;;;;;;;;;8321897;28;20024;-60
2022/07/08 15:41:42;;;;;;;2.35;1.98;;;;;;;;;;8317297;28;20249;-60
2022/07/08 15:45:42;;;;;;;2.40;2.00;;;;;;;;;;8318725;28;20025;-60
2022/07/08 15:49:42;;;;;;;3.00;2.05;;;;;;;;;;8321467;28;20025;-60
2022/07/08 15:53:43;;;;;;;6.67;2.10;;;;;;;;;;8317437;28;20032;-60
2022/07/08 15:57:43;;;;;;;2.63;2.10;;;;;;;;;;8317884;28;20024;-61
2022/07/08 16:01:43;;;;;;;5.47;2.10;;;;;;;;;;8316968;28;20028;-61
2022/07/08 16:05:43;;;;;;;3.28;2.17;;;;;;;;;;8315235;28;20017;-60
2022/07/08 16:09:43;;;;;;;3.63;2.08;;;;;;;;;;8322901;28;20033;-60
2022/07/08 16:13:43;;;;;;;4.72;2.13;;;;;;;;;;8325653;28;20057;-61
2022/07/08 16:17:44;;;;;;;2.58;1.88;;;;;;;;;;8317209;28;20137;-61
2022/07/08 16:21:44;;;;;;;2.83;2.10;;;;;;;;;;8320856;28;20025;-62
2022/07/08 16:25:45;;;;;;;4.70;1.90;;;;;;;;;;8320786;28;20090;-61
2022/07/08 16:29:45;;;;;;;3.87;1.97;;;;;;;;;;8318956;28;20162;-61
2022/07/08 16:33:46;;;;;;;3.28;2.00;;;;;;;;;;8317569;28;20049;-61
2022/07/08 16:37:46;;;;;;;2.85;1.90;;;;;;;;;;8318723;28;20043;-61
2022/07/08 16:41:46;;;;;;;3.13;2.03;;;;;;;;;;8318855;28;20532;-61
2022/07/08 16:45:46;;;;;;;3.42;2.00;;;;;;;;;;8316569;28;20635;-61
2022/07/08 16:49:47;;;;;;;3.33;2.10;;;;;;;;;;8320776;28;20376;-61
2022/07/08 16:53:47;;;;;;;6.78;1.90;;;;;;;;;;8316638;28;20167;-60
2022/07/08 16:57:47;;;;;;;3.93;2.10;;;;;;;;;;8319061;28;20141;-61
2022/07/08 17:01:47;;;;;;;3.70;2.10;;;;;;;;;;8317827;28;20206;-61
2022/07/08 17:05:47;;;;;;;3.47;2.00;;;;;;;;;;8317470;28;20031;-61
2022/07/08 17:09:48;;;;;;;2.88;1.92;;;;;;;;;;8317847;28;20045;-61
2022/07/08 17:13:49;;;;;;;3.83;1.88;;;;;;;;;;8315757;28;20083;-61
2022/07/08 17:17:51;;;;;;;3.15;1.90;;;;;;;;;;8316910;28;20040;-61
2022/07/08 17:21:51;;;;;;;5.78;1.58;;;;;;;;;;8317560;28;20020;-61
2022/07/08 17:25:54;;;;;;;4.70;1.65;;;;;;;;;;8314580;28;20370;-61
2022/07/08 17:29:55;;;;;;;6.18;1.70;;;;;;;;;;8315466;28;20017;-62
2022/07/08 17:33:55;;;;;;;3.72;1.60;;;;;;;;;;8314100;28;20494;-62
2022/07/08 17:37:55;;;;;;;4.22;1.63;;;;;;;;;;8316764;28;20532;-63
2022/07/08 17:41:55;;;;;;;3.08;1.55;;;;;;;;;;8316027;28;21377;-62
2022/07/08 17:45:56;;;;;;;2.67;1.40;;;;;;;;;;8315145;28;20045;-62
2022/07/08 17:49:56;;;;;;;1.65;1.30;;;;;;;;;;8318447;28;20029;-62
2022/07/08 17:53:56;;;;;;;3.22;1.40;;;;;;;;;;8313931;28;20144;-62
2022/07/08 17:57:56;;;;;;;1.65;1.20;;;;;;;;;;8312821;28;20025;-62
2022/07/08 18:01:59;;;;;;;2.70;1.33;;;;;;;;;;8315002;28;20493;-61
2022/07/08 18:06:00;;;;;;;4.30;1.40;;;;;;;;;;8312123;28;20518;-61
2022/07/08 18:10:00;;;;;;;2.50;1.25;;;;;;;;;;8314894;28;20248;-62
2022/07/08 18:14:00;;;;;;;4.43;1.17;;;;;;;;;;8311862;28;20110;-61
2022/07/08 18:18:00;;;;;;;2.83;1.20;;;;;;;;;;8310989;28;20400;-61
2022/07/08 18:22:00;;;;;;;1.92;1.20;;;;;;;;;;8314939;28;20024;-61
2022/07/08 18:26:01;;;;;;;1.58;1.02;;;;;;;;;;8312101;28;20036;-61
2022/07/08 18:30:02;;;;;;;1.70;1.23;;;;;;;;;;8311132;28;20361;-62
2022/07/08 18:34:02;;;;;;;2.00;1.10;;;;;;;;;;8312873;28;20572;-62
2022/07/08 18:38:02;;;;;;;2.78;1.20;;;;;;;;;;8315570;28;20699;-61
2022/07/08 18:42:03;;;;;;;2.25;1.15;;;;;;;;;;8311300;28;20501;-62
2022/07/08 18:46:03;;;;;;;1.83;1.00;;;;;;;;;;8311702;28;20547;-62
2022/07/08 18:50:04;;;;;;;2.10;1.30;;;;;;;;;;8313196;28;20033;-62
2022/07/08 18:54:04;;;;;;;1.83;1.13;;;;;;;;;;8309648;28;20524;-61
2022/07/08 18:58:04;;;;;;;2.20;1.27;;;;;;;;;;8312173;28;20018;-61
2022/07/08 19:02:05;;;;;;;2.10;1.25;;;;;;;;;;8309394;28;20289;-61
2022/07/08 19:06:05;;;;;;;1.33;1.10;;;;;;;;;;8312317;28;20488;-61
2022/07/08 19:10:05;;;;;;;1.98;1.30;;;;;;;;;;8314318;28;20321;-61
2022/07/08 19:14:06;;;;;;;1.42;1.25;;;;;;;;;;8316534;28;20024;-61
2022/07/08 19:18:06;;;;;;;2.25;1.17;;;;;;;;;;8315990;28;20032;-62
2022/07/08 19:22:06;;;;;;;1.30;1.10;;;;;;;;;;8318375;28;20278;-61
2022/07/08 19:26:06;;;;;;;2.80;1.40;;;;;;;;;;8313847;28;20029;-61
2022/07/08 19:30:07;;;;;;;1.45;1.13;;;;;;;;;;8317967;28;20056;-62
2022/07/08 19:34:07;;;;;;;1.92;1.40;;;;;;;;;;8313697;28;20024;-61
2022/07/08 19:38:07;;;;;;;2.40;1.10;;;;;;;;;;8316355;28;20614;-61
2022/07/08 19:42:07;;;;;;;1.77;1.17;;;;;;;;;;8313896;28;20044;-61
2022/07/08 19:46:07;;;;;;;3.58;1.48;;;;;;;;;;8315537;28;20041;-61
2022/07/08 19:50:08;;;;;;;3.17;1.15;;;;;;;;;;8316885;28;20100;-61
2022/07/08 19:54:08;;;;;;;2.50;1.52;;;;;;;;;;8317695;28;20416;-61
2022/07/08 19:58:09;;;;;;;2.25;1.30;;;;;;;;;;8316059;28;20124;-61
2022/07/08 20:02:09;;;;;;;2.17;1.30;;;;;;;;;;8315467;28;20534;-61
2022/07/08 20:06:09;;;;;;;4.03;1.20;;;;;;;;;;8314121;28;20278;-61
2022/07/08 20:10:09;;;;;;;2.60;1.20;;;;;;;;;;8311620;28;20025;-61
2022/07/08 20:14:11;;;;;;;3.05;1.20;;;;;;;;;;8315375;28;20024;-61
2022/07/08 20:18:11;;;;;;;4.05;1.40;;;;;;;;;;8309953;28;20467;-61
2022/07/08 20:22:12;;;;;;;3.20;1.30;;;;;;;;;;8325753;28;20111;-61
2022/07/08 20:26:12;;;;;;;2.95;1.20;;;;;;;;;;8343052;28;20033;-62
2022/07/08 20:30:12;;;;;;;2.53;1.05;;;;;;;;;;8318545;28;20264;-61
2022/07/08 20:34:13;;;;;;;2.30;1.15;;;;;;;;;;8320632;28;20395;-62
2022/07/08 20:38:13;;;;;;;4.80;1.27;;;;;;;;;;8323812;28;20484;-61
2022/07/08 20:46:32;;;;;;;1.73;1.27;;;;;;;;;;8318295;28;20999;-62
2022/07/08 20:50:32;;;;;;;1.60;1.15;;;;;;;;;;8322715;28;20049;-61
2022/07/08 20:54:32;;;;;;;4.95;1.50;;;;;;;;;;8318663;28;20025;-61
2022/07/08 20:58:33;;;;;;;1.70;1.30;;;;;;;;;;8316143;28;20111;-61
2022/07/08 21:02:34;;;;;;;2.10;1.17;;;;;;;;;;8301410;28;20132;-60
2022/07/08 21:06:34;;;;;;;3.88;1.30;;;;;;;;;;8314779;28;20111;-60
2022/07/08 21:10:34;;;;;;;2.65;1.45;;;;;;;;;;8317493;28;20305;-61
2022/07/08 21:14:34;;;;;;;3.72;2.03;;;;;;;;;;8314747;28;20094;-60
2022/07/08 21:18:35;;;;;;;2.45;1.17;;;;;;;;;;8315500;28;20029;-61
2022/07/08 21:22:35;;;;;;;1.83;1.30;;;;;;;;;;8312987;28;20026;-60
2022/07/08 21:26:35;;;;;;;1.70;1.30;;;;;;;;;;8313637;28;20437;-61
2022/07/08 21:30:35;;;;;;;1.33;1.23;;;;;;;;;;8314466;28;20091;-60
2022/07/08 21:34:36;;;;;;;6.93;1.67;;;;;;;;;;8312340;28;20025;-60
2022/07/08 21:38:36;;;;;;;2.45;1.45;;;;;;;;;;8315865;28;20026;-60
2022/07/08 21:42:36;;;;;;;1.55;1.20;;;;;;;;;;8315106;28;20553;-60
2022/07/08 21:46:37;;;;;;;3.15;1.60;;;;;;;;;;8312610;28;20136;-60
2022/07/08 21:50:38;;;;;;;5.25;1.52;;;;;;;;;;8313463;28;20059;-60
2022/07/08 21:54:38;;;;;;;3.28;1.45;;;;;;;;;;8314058;28;20021;-61
2022/07/08 21:58:39;;;;;;;1.45;1.33;;;;;;;;;;8311644;28;20233;-60
2022/07/08 22:02:40;;;;;;;1.85;1.25;;;;;;;;;;8311810;28;20044;-60
2022/07/08 22:06:40;;;;;;;3.05;1.40;;;;;;;;;;8314031;28;20016;-61
2022/07/08 22:10:40;;;;;;;3.28;1.25;;;;;;;;;;8310823;28;20170;-61
2022/07/08 22:14:40;;;;;;;2.60;1.38;;;;;;;;;;8314582;28;20080;-62
2022/07/08 22:18:41;;;;;;;5.63;1.70;;;;;;;;;;8309922;28;20033;-60
2022/07/08 22:22:41;;;;;;;2.43;1.50;;;;;;;;;;8313168;28;20041;-61
2022/07/08 22:26:41;;;;;;;2.90;1.50;;;;;;;;;;8313168;28;20032;-61
2022/07/08 22:30:41;;;;;;;2.67;1.83;;;;;;;;;;8316732;28;20681;-61
2022/07/08 22:34:41;;;;;;;2.20;1.43;;;;;;;;;;8320889;28;20045;-61
2022/07/08 22:38:42;;;;;;;3.47;1.40;;;;;;;;;;8322270;28;20029;-61
2022/07/08 22:42:44;;;;;;;4.00;1.37;;;;;;;;;;8316016;28;20025;-61
2022/07/08 22:46:44;;;;;;;7.88;1.63;;;;;;;;;;8319105;28;20124;-61
2022/07/08 22:50:45;;;;;;;3.15;1.40;;;;;;;;;;8320554;28;20036;-61
2022/07/08 22:54:45;;;;;;;2.65;1.33;;;;;;;;;;8320394;28;20151;-62
2022/07/08 22:58:46;;;;;;;4.47;1.60;;;;;;;;;;8321899;28;20093;-61
2022/07/08 23:02:46;;;;;;;2.33;1.47;;;;;;;;;;8321242;28;20037;-61
2022/07/08 23:06:46;;;;;;;3.33;1.40;;;;;;;;;;8323475;28;20140;-61
2022/07/08 23:10:46;;;;;;;1.87;1.40;;;;;;;;;;8320378;28;20043;-61
2022/07/08 23:14:47;;;;;;;1.43;1.33;;;;;;;;;;8323342;28;20028;-61
2022/07/08 23:18:47;;;;;;;2.87;1.57;;;;;;;;;;8322943;28;21055;-61
2022/07/08 23:22:48;;;;;;;4.80;1.38;;;;;;;;;;8323323;28;20297;-62
2022/07/08 23:26:48;;;;;;;3.13;1.60;;;;;;;;;;8320143;28;20510;-61
2022/07/08 23:30:48;;;;;;;3.53;1.20;;;;;;;;;;8320431;28;20094;-61
2022/07/08 23:34:48;;;;;;;2.00;1.40;;;;;;;;;;8319743;28;20024;-61
2022/07/08 23:38:48;;;;;;;2.55;1.65;;;;;;;;;;8321378;28;20017;-61
2022/07/08 23:42:50;;;;;;;3.63;1.67;;;;;;;;;;8322978;28;20041;-61
2022/07/08 23:46:50;;;;;;;2.58;1.50;;;;;;;;;;8322499;28;20042;-61
2022/07/08 23:50:51;;;;;;;4.30;1.50;;;;;;;;;;8320295;28;20151;-61
2022/07/08 23:54:52;;;;;;;3.78;1.50;;;;;;;;;;8326918;28;20037;-61
2022/07/08 23:58:52;;;;;;;2.47;1.60;;;;;;;;;;8326445;28;20033;-61
